Time;durP1;ratioP1;P1;durP2;ratioP2;P2;SDS_P1;SDS_P2;PMS_P1;PMS_P2;Temp;Humidity;BMP_temperature;BMP_pressure;BME280_temperature;BME280_humidity;BME280_pressure;Samples;Min_cycle;Max_cycle;Signal;HPM_P1;HPM_P2
2024/01/20 00:04:09;;;;;;;10.85;6.03;;;;;;;-5.15;100.00;99287.28;15284954;19;20082;-65
2024/01/20 00:09:34;;;;;;;10.48;5.70;;;;;;;-5.22;100.00;99276.06;15292690;19;20019;-65
2024/01/20 00:15:11;;;;;;;15.90;6.55;;;;;;;-5.25;100.00;99268.25;15286712;19;20015;-66
2024/01/20 00:20:37;;;;;;;12.02;5.93;;;;;;;-5.29;100.00;99271.91;15292443;19;20047;-65
2024/01/20 00:26:02;;;;;;;9.80;5.80;;;;;;;-5.29;100.00;99283.25;15280911;19;20034;-66
2024/01/20 00:31:31;;;;;;;9.20;5.80;;;;;;;-5.26;100.00;99277.03;15285455;19;20118;-65
2024/01/20 00:36:58;;;;;;;12.75;5.57;;;;;;;-5.31;100.00;99266.66;15274960;19;20026;-65
2024/01/20 00:42:23;;;;;;;10.02;5.85;;;;;;;-5.35;100.00;99275.50;15283027;19;20054;-65
2024/01/20 00:47:50;;;;;;;11.15;6.10;;;;;;;-5.34;100.00;99287.75;15275577;19;20428;-65
2024/01/20 00:53:15;;;;;;;9.85;5.88;;;;;;;-5.41;100.00;99294.91;15278102;19;20466;-65
2024/01/20 00:58:39;;;;;;;10.63;6.07;;;;;;;-5.47;100.00;99299.50;15280081;19;20472;-66
2024/01/20 01:04:07;;;;;;;10.07;5.63;;;;;;;-5.51;100.00;99300.47;15277183;19;20137;-65
2024/01/20 01:09:31;;;;;;;13.52;6.32;;;;;;;-5.57;100.00;99302.31;15276766;19;20305;-66
2024/01/20 01:14:57;;;;;;;10.68;6.43;;;;;;;-5.61;100.00;99297.19;15279846;19;20298;-66
2024/01/20 01:20:24;;;;;;;11.52;6.47;;;;;;;-5.74;100.00;99301.91;15279696;19;20615;-65
2024/01/20 01:25:49;;;;;;;12.45;6.65;;;;;;;-5.78;100.00;99300.22;15271591;19;20046;-65
2024/01/20 01:31:13;;;;;;;10.68;6.70;;;;;;;-5.78;100.00;99305.47;15019572;19;5001326;-65
2024/01/20 01:36:41;;;;;;;9.88;6.32;;;;;;;-5.87;100.00;99306.56;15271394;19;20503;-65
2024/01/20 01:42:06;;;;;;;11.48;6.70;;;;;;;-5.92;100.00;99313.69;15269725;19;20276;-66
2024/01/20 01:47:31;;;;;;;10.93;6.45;;;;;;;-5.99;100.00;99318.22;15270583;19;20341;-66
2024/01/20 01:53:00;;;;;;;11.77;7.03;;;;;;;-5.99;100.00;99307.72;15277362;19;20541;-66
2024/01/20 01:58:26;;;;;;;10.50;6.28;;;;;;;-5.95;100.00;99314.63;15274328;19;20014;-66
2024/01/20 02:03:50;;;;;;;9.88;6.65;;;;;;;-5.95;100.00;99311.13;15272527;19;20094;-65
2024/01/20 02:09:19;;;;;;;9.82;6.20;;;;;;;-5.92;100.00;99314.53;15275738;19;20024;-66
2024/01/20 02:14:45;;;;;;;9.75;6.50;;;;;;;-5.84;100.00;99321.38;15259365;19;20021;-65
2024/01/20 02:20:12;;;;;;;9.02;5.93;;;;;;;-5.81;100.00;99319.56;15269084;19;20018;-66
2024/01/20 02:25:46;;;;;;;11.25;6.30;;;;;;;-5.81;100.00;99332.66;15268783;19;20029;-64
2024/01/20 02:31:11;;;;;;;10.35;5.78;;;;;;;-5.76;100.00;99329.94;15273251;19;20019;-64
2024/01/20 02:36:35;;;;;;;12.02;6.20;;;;;;;-5.73;100.00;99328.09;15272981;19;20433;-67
2024/01/20 02:42:04;;;;;;;9.95;6.00;;;;;;;-5.76;100.00;99341.28;15276648;19;20081;-65
2024/01/20 02:47:29;;;;;;;10.98;5.90;;;;;;;-5.76;100.00;99340.44;15271530;19;20019;-65
2024/01/20 02:52:54;;;;;;;9.32;5.50;;;;;;;-5.71;100.00;99343.81;15276258;19;20383;-66
2024/01/20 02:58:21;;;;;;;9.25;5.60;;;;;;;-5.64;100.00;99348.03;15014682;19;5001490;-67
2024/01/20 03:03:46;;;;;;;11.15;6.03;;;;;;;-5.58;100.00;99345.22;15273173;19;20019;-65
2024/01/20 03:09:14;;;;;;;8.40;5.38;;;;;;;-5.52;100.00;99349.47;15269364;19;20126;-65
2024/01/20 03:14:42;;;;;;;7.82;5.05;;;;;;;-5.47;100.00;99344.13;15266978;19;20828;-65
2024/01/20 03:20:07;;;;;;;9.65;5.60;;;;;;;-5.45;100.00;99334.44;15271270;19;20020;-70
2024/01/20 03:25:33;;;;;;;8.10;5.40;;;;;;;-5.57;100.00;99336.47;15268392;19;20021;-66
2024/01/20 03:31:01;;;;;;;9.82;5.57;;;;;;;-5.62;100.00;99342.72;15278739;19;20021;-67
2024/01/20 03:36:26;;;;;;;7.60;5.57;;;;;;;-5.71;100.00;99354.34;15284535;19;20330;-66
2024/01/20 03:41:51;;;;;;;9.57;5.47;;;;;;;-5.68;100.00;99353.38;15288825;19;20018;-66
2024/01/20 03:47:19;;;;;;;9.35;5.53;;;;;;;-5.74;100.00;99370.13;15281302;19;20081;-67
2024/01/20 03:52:43;;;;;;;9.63;5.25;;;;;;;-5.80;100.00;99379.03;15288251;19;20026;-67
2024/01/20 03:58:08;;;;;;;8.50;5.57;;;;;;;-5.85;100.00;99382.66;15279396;19;20028;-66
2024/01/20 04:03:36;;;;;;;10.15;5.55;;;;;;;-5.89;100.00;99384.47;15283151;19;20079;-63
2024/01/20 04:09:03;;;;;;;9.10;6.03;;;;;;;-5.90;100.00;99383.59;15278047;19;20059;-65
2024/01/20 04:14:28;;;;;;;9.55;5.28;;;;;;;-5.92;100.00;99387.16;15279970;19;20030;-66
2024/01/20 04:19:49;;;;;;;8.13;5.60;;;;;;;-6.01;100.00;99409.25;15283291;19;20431;-65
2024/01/20 04:25:23;;;;;;;7.50;5.10;;;;;;;-6.13;100.00;99397.28;15277330;19;20086;-65
2024/01/20 04:30:47;;;;;;;10.73;5.30;;;;;;;-6.24;100.00;99407.97;15287003;19;20444;-65
2024/01/20 04:36:15;;;;;;;7.60;4.97;;;;;;;-6.34;100.00;99411.69;15278680;19;20370;-64
2024/01/20 04:41:40;;;;;;;8.35;5.18;;;;;;;-6.39;100.00;99418.75;15283280;19;20480;-64
2024/01/20 04:47:04;;;;;;;8.02;5.88;;;;;;;-6.42;100.00;99408.34;15282420;19;20138;-64
2024/01/20 04:52:32;;;;;;;8.02;5.47;;;;;;;-6.13;100.00;99425.25;15281991;19;20470;-64
2024/01/20 04:57:57;;;;;;;10.05;5.40;;;;;;;-6.06;100.00;99432.09;15280661;19;20022;-64
2024/01/20 05:03:21;;;;;;;9.15;5.03;;;;;;;-6.00;100.00;99426.72;15283391;19;20462;-64
2024/01/20 05:08:49;;;;;;;7.97;5.18;;;;;;;-6.03;100.00;99424.16;15282736;19;20073;-64
2024/01/20 05:14:14;;;;;;;8.63;5.18;;;;;;;-6.15;100.00;99429.66;15278989;19;20064;-64
2024/01/20 05:19:38;;;;;;;9.00;5.28;;;;;;;-6.14;100.00;99428.75;15283703;19;20471;-64
2024/01/20 05:25:06;;;;;;;9.60;5.25;;;;;;;-6.16;100.00;99446.28;15274861;19;20093;-64
2024/01/20 05:30:31;;;;;;;8.75;5.22;;;;;;;-6.15;100.00;99448.00;15279240;19;20130;-64
2024/01/20 05:35:56;;;;;;;11.70;5.40;;;;;;;-6.09;100.00;99448.75;15277651;19;20470;-64
2024/01/20 05:41:24;;;;;;;10.57;5.68;;;;;;;-6.08;100.00;99445.25;15277485;19;20130;-64
2024/01/20 05:46:48;;;;;;;7.15;5.20;;;;;;;-6.15;100.00;99438.41;15274596;19;20037;-64
2024/01/20 05:52:14;;;;;;;7.72;5.32;;;;;;;-6.16;100.00;99433.16;15279033;19;20139;-64
2024/01/20 05:57:41;;;;;;;7.03;4.82;;;;;;;-6.27;100.00;99443.91;15279518;19;20081;-64
2024/01/20 06:03:06;;;;;;;8.05;5.03;;;;;;;-6.30;100.00;99443.94;15278866;19;20023;-64
2024/01/20 06:08:30;;;;;;;8.13;4.82;;;;;;;-6.23;100.00;99442.91;15278238;19;20122;-64
2024/01/20 06:14:00;;;;;;;7.47;4.53;;;;;;;-6.05;100.00;99454.78;15280876;19;20152;-64
2024/01/20 06:19:24;;;;;;;7.40;5.03;;;;;;;-5.86;100.00;99449.16;15287896;19;20386;-64
2024/01/20 06:24:56;;;;;;;8.98;5.25;;;;;;;-5.75;100.00;99465.53;15275057;19;20018;-65
2024/01/20 06:30:23;;;;;;;7.03;5.47;;;;;;;-5.66;100.00;99478.44;15269834;19;20025;-63
2024/01/20 06:35:48;;;;;;;8.07;5.13;;;;;;;-5.66;100.00;99480.22;15274119;19;20445;-64
2024/01/20 06:41:12;;;;;;;9.02;5.55;;;;;;;-5.66;100.00;99485.47;15276701;19;20030;-64
2024/01/20 06:46:40;;;;;;;7.05;5.10;;;;;;;-5.65;100.00;99482.81;15271448;19;20471;-63
2024/01/20 06:52:06;;;;;;;8.30;5.32;;;;;;;-5.70;100.00;99496.94;15277064;19;20034;-64
2024/01/20 06:57:31;;;;;;;8.27;5.18;;;;;;;-5.69;100.00;99510.00;15276508;19;20082;-63
2024/01/20 07:03:01;;;;;;;7.53;5.13;;;;;;;-5.78;100.00;99497.97;15270540;19;20015;-64
2024/01/20 07:08:29;;;;;;;6.18;4.55;;;;;;;-5.76;100.00;99508.44;15270367;19;20774;-63
2024/01/20 07:13:54;;;;;;;8.32;4.40;;;;;;;-5.73;100.00;99509.22;15269309;19;20015;-63
2024/01/20 07:19:21;;;;;;;5.78;4.43;;;;;;;-5.72;100.00;99504.84;15272994;19;20083;-63
2024/01/20 07:24:52;;;;;;;9.13;4.78;;;;;;;-5.61;100.00;99504.59;15268461;19;20488;-64
2024/01/20 07:30:17;;;;;;;8.45;5.43;;;;;;;-5.47;100.00;99520.94;15272518;19;20684;-64
2024/01/20 07:35:44;;;;;;;5.80;4.35;;;;;;;-5.36;100.00;99499.69;15266075;19;20010;-64
2024/01/20 07:41:10;;;;;;;6.85;4.60;;;;;;;-5.25;100.00;99509.94;15274841;19;20018;-63
2024/01/20 07:46:36;;;;;;;6.32;4.20;;;;;;;-5.17;100.00;99508.00;15269999;19;20025;-64
2024/01/20 07:52:03;;;;;;;7.20;4.65;;;;;;;-5.09;100.00;99512.22;15269262;19;20010;-64
2024/01/20 07:57:29;;;;;;;6.30;4.50;;;;;;;-5.05;100.00;99522.63;15273588;19;20094;-64
2024/01/20 08:02:54;;;;;;;7.13;4.25;;;;;;;-4.95;100.00;99534.66;15275684;19;20018;-64
2024/01/20 08:08:21;;;;;;;6.93;4.32;;;;;;;-4.86;100.00;99537.94;15264815;19;20021;-64
2024/01/20 08:13:46;;;;;;;7.18;3.95;;;;;;;-4.77;100.00;99539.50;15264576;19;20038;-64
2024/01/20 08:19:11;;;;;;;6.43;4.82;;;;;;;-4.70;100.00;99551.59;15283103;19;20014;-64
2024/01/20 08:24:38;;;;;;;7.50;4.65;;;;;;;-4.62;100.00;99567.19;15282249;19;20029;-64
2024/01/20 08:30:03;;;;;;;8.25;4.45;;;;;;;-4.58;100.00;99571.47;15280359;19;20021;-64
2024/01/20 08:35:28;;;;;;;8.07;5.53;;;;;;;-4.57;100.00;99589.00;15279914;19;20482;-64
2024/01/20 08:40:56;;;;;;;9.43;5.28;;;;;;;-4.61;100.00;99587.31;15276791;19;20010;-64
2024/01/20 08:46:22;;;;;;;7.72;4.55;;;;;;;-4.58;100.00;99600.41;15279933;19;20374;-64
2024/01/20 08:51:46;;;;;;;7.25;4.38;;;;;;;-4.59;100.00;99599.56;15286809;19;20019;-64
2024/01/20 08:57:13;;;;;;;6.30;4.40;;;;;;;-4.57;100.00;99615.28;15284807;19;20094;-63
2024/01/20 09:02:39;;;;;;;7.60;4.65;;;;;;;-4.55;100.00;99616.97;15277538;19;20512;-64
2024/01/20 09:08:05;;;;;;;8.32;4.05;;;;;;;-4.54;100.00;99620.50;15280228;19;20388;-67
2024/01/20 09:13:32;;;;;;;5.97;4.25;;;;;;;-4.51;100.00;99617.75;15277458;19;20018;-64
2024/01/20 09:18:58;;;;;;;6.60;4.53;;;;;;;-4.42;100.00;99630.72;15277732;19;20394;-63
2024/01/20 09:24:23;;;;;;;5.20;4.07;;;;;;;-4.38;100.00;99634.13;15277730;19;20022;-64
2024/01/20 09:29:51;;;;;;;7.60;4.60;;;;;;;-4.41;100.00;99636.81;15274734;19;20018;-64
2024/01/20 09:35:17;;;;;;;7.07;4.97;;;;;;;-4.44;100.00;99640.41;15276937;19;20014;-64
2024/01/20 09:40:42;;;;;;;7.03;4.70;;;;;;;-4.46;100.00;99636.94;15280656;19;20122;-64
2024/01/20 09:46:09;;;;;;;7.15;5.13;;;;;;;-4.49;100.00;99632.63;15271524;19;20014;-66
2024/01/20 09:51:35;;;;;;;7.88;4.70;;;;;;;-4.49;100.00;99627.38;15276069;19;20011;-66
2024/01/20 09:57:01;;;;;;;7.40;5.05;;;;;;;-4.46;100.00;99638.69;15275694;19;20478;-66
2024/01/20 10:02:32;;;;;;;6.57;4.40;;;;;;;-4.37;100.00;99631.44;15282311;19;20017;-67
2024/01/20 10:07:56;;;;;;;5.35;4.28;;;;;;;-4.25;100.00;99638.19;15280602;19;20018;-67
2024/01/20 10:13:21;;;;;;;7.45;4.40;;;;;;;-4.05;100.00;99637.66;15278256;19;20094;-63
2024/01/20 10:18:49;;;;;;;6.57;4.28;;;;;;;-3.91;100.00;99629.44;15270840;19;20019;-66
2024/01/20 10:24:19;;;;;;;6.78;4.78;;;;;;;-3.79;100.00;99649.31;15277221;19;20069;-66
2024/01/20 10:29:45;;;;;;;5.70;4.40;;;;;;;-3.66;100.00;99641.97;15279990;19;20086;-64
2024/01/20 10:35:13;;;;;;;6.50;4.20;;;;;;;-3.46;100.00;99632.63;15281097;19;20025;-64
2024/01/20 10:40:37;;;;;;;7.07;5.18;;;;;;;-3.30;100.00;99636.56;15281522;19;20021;-68
2024/01/20 10:46:03;;;;;;;7.60;4.80;;;;;;;-3.16;100.00;99636.16;15271368;19;20564;-67
2024/01/20 10:51:35;;;;;;;6.45;5.03;;;;;;;-3.00;100.00;99641.00;15278363;19;20018;-67
2024/01/20 10:57:00;;;;;;;7.63;4.80;;;;;;;-2.85;100.00;99637.88;15274508;19;20010;-67
2024/01/20 11:02:26;;;;;;;5.95;4.78;;;;;;;-2.71;100.00;99639.25;15282203;19;20028;-67
2024/01/20 11:08:07;;;;;;;5.57;4.55;;;;;;;-2.62;100.00;99631.03;15280641;19;20045;-67
2024/01/20 11:13:37;;;;;;;6.13;4.50;;;;;;;-2.50;100.00;99633.28;15278971;19;20395;-65
2024/01/20 11:19:10;;;;;;;6.50;4.65;;;;;;;-2.38;100.00;99636.44;15273523;19;20363;-67
2024/01/20 11:24:51;;;;;;;6.47;4.55;;;;;;;-2.27;100.00;99636.09;15270352;19;20018;-65
2024/01/20 11:30:17;;;;;;;7.35;4.72;;;;;;;-2.19;100.00;99642.88;15275727;19;20085;-64
2024/01/20 11:35:46;;;;;;;7.55;5.32;;;;;;;-2.05;100.00;99633.59;15276593;19;20095;-67
2024/01/20 11:41:13;;;;;;;13.88;6.93;;;;;;;-1.89;100.00;99624.25;15278861;19;20014;-67
2024/01/20 11:46:39;;;;;;;7.07;4.95;;;;;;;-1.77;100.00;99622.97;15273978;19;20018;-66
2024/01/20 11:52:05;;;;;;;7.45;5.13;;;;;;;-1.68;100.00;99619.13;15275708;19;20710;-65
2024/01/20 11:57:33;;;;;;;6.95;4.90;;;;;;;-1.58;100.00;99607.31;15298218;19;20022;-65
2024/01/20 12:02:58;;;;;;;5.50;4.40;;;;;;;-1.50;100.00;99603.53;15296499;19;20826;-65
2024/01/20 12:08:23;;;;;;;6.93;4.25;;;;;;;-1.42;100.00;99607.63;15295933;19;20479;-67
2024/01/20 12:13:50;;;;;;;6.10;4.07;;;;;;;-1.33;100.00;99602.91;15293367;19;20029;-64
2024/01/20 12:19:15;;;;;;;4.72;3.78;;;;;;;-1.26;100.00;99576.19;15297763;19;20025;-65
2024/01/20 12:24:46;;;;;;;5.35;4.30;;;;;;;-1.18;100.00;99585.63;15287560;19;20466;-65
2024/01/20 12:30:15;;;;;;;5.05;4.20;;;;;;;-1.10;100.00;99579.13;15294320;19;20077;-65
2024/01/20 12:35:41;;;;;;;5.70;3.75;;;;;;;-1.01;100.00;99583.19;15310744;19;20054;-65
2024/01/20 12:41:06;;;;;;;5.70;3.60;;;;;;;-0.91;100.00;99577.53;15315483;19;20027;-65
2024/01/20 12:46:34;;;;;;;4.93;3.95;;;;;;;-0.85;100.00;99569.34;15305621;19;20011;-66
2024/01/20 12:52:00;;;;;;;6.65;3.85;;;;;;;-0.72;100.00;99565.31;15281486;19;20500;-66
2024/01/20 12:57:25;;;;;;;5.90;3.60;;;;;;;-0.58;100.00;99571.81;15285022;19;20035;-67
2024/01/20 13:02:52;;;;;;;4.18;3.38;;;;;;;-0.45;100.00;99566.88;15287500;19;20022;-67
2024/01/20 13:08:17;;;;;;;4.28;3.20;;;;;;;-0.34;100.00;99565.53;15285500;19;20017;-67
2024/01/20 13:13:43;;;;;;;4.55;3.00;;;;;;;-0.25;100.00;99560.75;15283370;19;20022;-67
2024/01/20 13:19:10;;;;;;;4.20;2.88;;;;;;;-0.17;100.00;99570.13;15285788;19;20037;-67
2024/01/20 13:24:36;;;;;;;3.45;3.03;;;;;;;-0.14;100.00;99561.16;15283874;19;20077;-68
2024/01/20 13:30:01;;;;;;;3.33;3.03;;;;;;;-0.07;100.00;99562.66;15276924;19;20363;-70
2024/01/20 13:35:29;;;;;;;3.78;3.22;;;;;;;-0.02;100.00;99560.66;15279966;19;20815;-68
2024/01/20 13:40:54;;;;;;;5.80;3.67;;;;;;;0.09;100.00;99568.16;15286530;19;20028;-67
2024/01/20 13:46:18;;;;;;;3.17;2.30;;;;;;;0.17;100.00;99572.22;15279349;19;20468;-67
2024/01/20 13:51:46;;;;;;;3.38;2.60;;;;;;;0.26;100.00;99574.47;15282297;19;20024;-68
2024/01/20 13:57:11;;;;;;;3.05;2.30;;;;;;;0.34;100.00;99571.50;15281156;19;20025;-66
2024/01/20 14:02:35;;;;;;;3.25;2.50;;;;;;;0.49;100.00;99573.47;15279414;19;20110;-68
2024/01/20 14:08:03;;;;;;;3.15;2.67;;;;;;;0.63;100.00;99574.63;15284551;19;20034;-66
2024/01/20 14:13:28;;;;;;;3.75;2.78;;;;;;;0.71;100.00;99576.00;15281002;19;20018;-66
2024/01/20 14:18:53;;;;;;;3.08;2.53;;;;;;;0.81;100.00;99573.78;15282633;19;20017;-67
2024/01/20 14:24:25;;;;;;;3.80;2.78;;;;;;;0.89;100.00;99582.25;15280671;19;20471;-67
2024/01/20 14:29:52;;;;;;;3.10;2.80;;;;;;;0.98;100.00;99585.41;15281395;19;20475;-67
2024/01/20 14:35:18;;;;;;;3.30;2.78;;;;;;;0.95;100.00;99596.16;15275909;19;20070;-67
2024/01/20 14:40:45;;;;;;;3.60;2.95;;;;;;;0.89;100.00;99595.50;15280870;19;20098;-67
2024/01/20 14:46:10;;;;;;;4.47;3.03;;;;;;;0.82;100.00;99610.00;15275664;19;20038;-67
2024/01/20 14:51:35;;;;;;;4.90;3.17;;;;;;;0.75;100.00;99613.88;15279668;19;20041;-68
2024/01/20 14:57:02;;;;;;;3.97;2.90;;;;;;;0.56;100.00;99614.69;15275425;19;20024;-67
2024/01/20 15:02:27;;;;;;;4.57;3.10;;;;;;;0.28;100.00;99607.09;15277633;19;20349;-66
2024/01/20 15:07:52;;;;;;;4.13;2.90;;;;;;;0.09;100.00;99631.75;15275839;19;20025;-66
2024/01/20 15:13:19;;;;;;;3.40;2.92;;;;;;;-0.32;100.00;99629.00;15276257;19;20028;-66
2024/01/20 15:18:45;;;;;;;4.25;3.05;;;;;;;-0.61;100.00;99631.06;15278644;19;20078;-66
2024/01/20 15:24:11;;;;;;;3.20;2.75;;;;;;;-0.80;100.00;99620.31;15275074;19;20891;-66
2024/01/20 15:29:39;;;;;;;4.05;2.90;;;;;;;-0.98;100.00;99627.19;15292664;19;20035;-67
2024/01/20 15:35:05;;;;;;;3.35;2.78;;;;;;;-1.23;100.00;99637.84;15288794;19;20082;-66
2024/01/20 15:40:30;;;;;;;3.58;3.00;;;;;;;-1.41;100.00;99658.72;15290278;19;20018;-67
2024/01/20 15:45:59;;;;;;;4.00;3.03;;;;;;;-1.59;100.00;99658.44;15288526;19;20038;-69
2024/01/20 15:51:26;;;;;;;3.70;3.00;;;;;;;-1.76;100.00;99659.03;15295562;19;20006;-67
2024/01/20 15:56:50;;;;;;;4.93;3.47;;;;;;;-1.84;100.00;99673.44;15280826;19;20010;-67
2024/01/20 16:02:18;;;;;;;4.97;4.00;;;;;;;-1.97;100.00;99681.75;15292468;19;20663;-66
2024/01/20 16:07:42;;;;;;;9.25;5.35;;;;;;;-2.08;100.00;99697.09;15289998;19;20379;-67
2024/01/20 16:13:08;;;;;;;12.93;6.78;;;;;;;-2.20;100.00;99699.22;15285395;19;20522;-67
2024/01/20 16:18:36;;;;;;;9.32;6.45;;;;;;;-2.29;100.00;99711.84;15290631;19;20035;-64
2024/01/20 16:24:02;;;;;;;6.07;4.65;;;;;;;-2.38;100.00;99712.97;15287897;19;20025;-66
2024/01/20 16:29:28;;;;;;;6.50;5.03;;;;;;;-2.49;100.00;99714.19;15288654;19;20030;-65
2024/01/20 16:34:56;;;;;;;5.53;4.57;;;;;;;-2.64;100.00;99725.19;15286712;19;20018;-67
2024/01/20 16:40:22;;;;;;;6.82;5.53;;;;;;;-2.76;100.00;99726.44;15282659;19;20511;-65
2024/01/20 16:45:47;;;;;;;6.53;4.93;;;;;;;-2.89;100.00;99725.94;15263661;19;20010;-63
2024/01/20 16:51:15;;;;;;;7.15;4.85;;;;;;;-3.05;100.00;99730.75;15286009;19;20048;-66
2024/01/20 16:56:44;;;;;;;6.25;4.88;;;;;;;-3.18;100.00;99739.94;15282943;19;20018;-65
2024/01/20 17:02:09;;;;;;;9.02;6.85;;;;;;;-3.29;100.00;99740.22;15286693;19;20018;-66
2024/01/20 17:07:37;;;;;;;9.38;6.25;;;;;;;-3.41;100.00;99744.91;15287895;19;20016;-65
2024/01/20 17:13:04;;;;;;;10.95;8.18;;;;;;;-3.54;100.00;99737.38;15255330;19;20045;-67
2024/01/20 17:18:29;;;;;;;15.50;10.77;;;;;;;-3.62;100.00;99737.56;15282473;19;20017;-67
2024/01/20 17:23:56;;;;;;;13.20;8.32;;;;;;;-3.65;100.00;99738.50;15281485;19;20025;-66
2024/01/20 17:29:22;;;;;;;10.93;7.82;;;;;;;-3.74;100.00;99741.34;15282727;19;20480;-66
2024/01/20 17:34:48;;;;;;;13.90;8.75;;;;;;;-3.82;100.00;99744.16;15282818;19;20373;-66
2024/01/20 17:40:16;;;;;;;15.65;9.65;;;;;;;-3.93;100.00;99744.44;15286481;19;20085;-65
2024/01/20 17:45:42;;;;;;;13.15;9.00;;;;;;;-4.03;100.00;99741.16;15276856;19;20475;-66
2024/01/20 17:51:08;;;;;;;16.65;9.80;;;;;;;-4.00;100.00;99747.25;15281759;19;20356;-65
2024/01/20 17:56:37;;;;;;;19.88;12.13;;;;;;;-4.04;100.00;99743.84;15279867;19;20022;-66
2024/01/20 18:02:03;;;;;;;23.70;13.93;;;;;;;-4.09;100.00;99733.44;15283186;19;20014;-65
2024/01/20 18:07:29;;;;;;;23.83;12.95;;;;;;;-4.14;100.00;99743.19;15281540;19;20367;-66
2024/01/20 18:12:57;;;;;;;23.33;13.13;;;;;;;-4.21;100.00;99747.72;15278132;19;20042;-67
2024/01/20 18:18:22;;;;;;;23.15;14.13;;;;;;;-4.26;100.00;99748.72;15277725;19;20407;-66
2024/01/20 18:23:48;;;;;;;17.88;10.30;;;;;;;-4.34;100.00;99747.16;15277238;19;20014;-67
2024/01/20 18:29:15;;;;;;;17.45;9.65;;;;;;;-4.42;100.00;99742.97;15277623;19;20482;-66
2024/01/20 18:34:40;;;;;;;15.68;9.38;;;;;;;-4.51;100.00;99754.53;15280568;19;20340;-66
2024/01/20 18:40:05;;;;;;;12.82;8.23;;;;;;;-4.60;100.00;99762.63;15280967;19;20017;-66
2024/01/20 18:45:33;;;;;;;13.38;8.10;;;;;;;-4.65;100.00;99774.13;15277982;19;20097;-65
2024/01/20 18:50:58;;;;;;;12.40;7.20;;;;;;;-4.73;100.00;99770.78;15275421;19;20081;-66
2024/01/20 18:56:22;;;;;;;11.25;7.43;;;;;;;-4.81;100.00;99772.69;15276435;19;20032;-66
2024/01/20 19:01:49;;;;;;;10.60;7.60;;;;;;;-4.86;100.00;99774.53;15279087;19;20089;-66
2024/01/20 19:07:14;;;;;;;12.50;7.68;;;;;;;-4.95;100.00;99776.47;15277212;19;20025;-66
2024/01/20 19:12:40;;;;;;;9.73;6.80;;;;;;;-5.05;100.00;99779.28;15272197;19;20024;-66
2024/01/20 19:18:07;;;;;;;9.88;6.72;;;;;;;-5.15;100.00;99779.47;15282096;19;20025;-66
2024/01/20 19:23:38;;;;;;;8.40;5.68;;;;;;;-5.24;100.00;99769.16;15266857;19;20023;-65
2024/01/20 19:29:03;;;;;;;7.07;5.32;;;;;;;-5.26;100.00;99784.06;15275646;19;20019;-67
2024/01/20 19:34:30;;;;;;;7.03;4.68;;;;;;;-5.27;100.00;99780.59;15274229;19;20011;-66
2024/01/20 19:39:54;;;;;;;6.20;4.85;;;;;;;-5.28;100.00;99775.34;15276714;19;20031;-66
2024/01/20 19:45:19;;;;;;;6.03;4.15;;;;;;;-5.34;100.00;99773.69;15277156;19;20014;-66
2024/01/20 19:50:46;;;;;;;6.63;4.60;;;;;;;-5.38;100.00;99774.66;15277938;19;20022;-66
2024/01/20 19:56:12;;;;;;;6.15;4.75;;;;;;;-5.45;100.00;99784.41;15275971;19;20010;-66
2024/01/20 20:01:44;;;;;;;6.38;4.05;;;;;;;-5.51;100.00;99781.88;15275249;19;20018;-67
2024/01/20 20:07:12;;;;;;;5.57;4.40;;;;;;;-5.57;100.00;99779.38;15273431;19;20025;-67
2024/01/20 20:12:38;;;;;;;5.70;4.10;;;;;;;-5.63;100.00;99777.72;15279465;19;20085;-66
2024/01/20 20:18:02;;;;;;;5.63;4.05;;;;;;;-5.69;100.00;99775.16;15289458;19;20097;-65
2024/01/20 20:23:30;;;;;;;4.47;3.65;;;;;;;-5.76;100.00;99777.03;15286195;19;20014;-65
2024/01/20 20:28:55;;;;;;;7.00;5.20;;;;;;;-5.80;100.00;99774.47;15280265;19;20096;-66
2024/01/20 20:34:20;;;;;;;7.32;5.05;;;;;;;-5.80;100.00;99779.72;15283515;19;20018;-66
2024/01/20 20:39:48;;;;;;;6.28;4.40;;;;;;;-5.88;100.00;99785.13;15289977;19;20532;-65
2024/01/20 20:45:13;;;;;;;6.22;4.65;;;;;;;-5.99;100.00;99780.03;15286110;19;20021;-65
2024/01/20 20:50:38;;;;;;;8.38;5.20;;;;;;;-6.02;100.00;99772.22;15288594;19;20019;-65
2024/01/20 20:56:05;;;;;;;8.30;4.97;;;;;;;-5.97;100.00;99775.63;15285049;19;20470;-65
2024/01/20 21:01:31;;;;;;;7.70;5.72;;;;;;;-5.95;100.00;99770.34;15284459;19;20029;-66
2024/01/20 21:06:56;;;;;;;7.90;5.45;;;;;;;-5.91;100.00;99758.94;15283146;19;20525;-64
2024/01/20 21:12:25;;;;;;;6.50;4.97;;;;;;;-5.91;100.00;99749.28;15283968;19;20026;-66
2024/01/20 21:17:51;;;;;;;5.82;4.80;;;;;;;-5.92;100.00;99750.16;15285167;19;20671;-66
2024/01/20 21:23:16;;;;;;;7.05;4.68;;;;;;;-5.93;100.00;99753.69;15282793;19;20367;-65
2024/01/20 21:28:44;;;;;;;4.80;4.22;;;;;;;-5.94;100.00;99749.31;15273456;19;20716;-64
2024/01/20 21:34:09;;;;;;;6.03;4.20;;;;;;;-5.95;100.00;99738.84;15275499;19;20475;-65
2024/01/20 21:39:33;;;;;;;6.32;4.57;;;;;;;-5.92;100.00;99744.06;15281833;19;20024;-64
2024/01/20 21:45:04;;;;;;;6.45;4.55;;;;;;;-5.92;100.00;99734.41;15279853;19;20379;-65
2024/01/20 21:50:29;;;;;;;7.63;4.97;;;;;;;-5.89;100.00;99739.63;15278030;19;20081;-65
2024/01/20 21:55:53;;;;;;;7.13;5.00;;;;;;;-5.89;100.00;99744.88;15277219;19;20018;-65
2024/01/20 22:01:20;;;;;;;6.65;4.80;;;;;;;-5.95;100.00;99739.75;15279991;19;20258;-65
2024/01/20 22:06:45;;;;;;;6.78;4.55;;;;;;;-5.97;100.00;99741.50;15263863;19;20018;-61
2024/01/20 22:12:10;;;;;;;6.40;4.82;;;;;;;-5.85;100.00;99744.84;15270895;19;20543;-59
2024/01/20 22:17:37;;;;;;;7.53;4.75;;;;;;;-5.79;100.00;99742.97;15275496;19;20484;-57
2024/01/20 22:23:09;;;;;;;8.55;4.93;;;;;;;-5.70;100.00;99730.56;15282384;19;20038;-59
2024/01/20 22:28:34;;;;;;;7.15;5.18;;;;;;;-5.64;100.00;99728.72;15278069;19;20018;-59
2024/01/20 22:34:01;;;;;;;8.20;6.10;;;;;;;-5.60;100.00;99738.28;15278170;19;20018;-56
2024/01/20 22:39:26;;;;;;;9.02;6.22;;;;;;;-5.54;100.00;99733.78;15278963;19;20053;-58
2024/01/20 22:44:51;;;;;;;11.10;6.63;;;;;;;-5.52;100.00;99724.13;15282133;19;20459;-58
2024/01/20 22:50:19;;;;;;;8.15;5.75;;;;;;;-5.52;100.00;99730.25;15284364;19;20028;-57
2024/01/20 22:55:43;;;;;;;7.38;5.25;;;;;;;-5.57;100.00;99714.56;15278787;19;20094;-59
2024/01/20 23:01:08;;;;;;;7.28;5.18;;;;;;;-5.62;100.00;99724.31;15283159;19;20506;-59
2024/01/20 23:06:35;;;;;;;6.53;4.38;;;;;;;-5.64;100.00;99712.97;15274917;19;20681;-57
2024/01/20 23:12:01;;;;;;;8.35;4.63;;;;;;;-5.69;100.00;99714.78;15278975;19;20020;-57
2024/01/20 23:17:26;;;;;;;8.35;4.82;;;;;;;-5.77;100.00;99704.44;15278011;19;20042;-57
2024/01/20 23:22:53;;;;;;;7.28;5.15;;;;;;;-5.81;100.00;99700.13;15275847;19;20023;-58
2024/01/20 23:28:25;;;;;;;7.90;5.38;;;;;;;-5.85;100.00;99702.84;14767627;19;10001254;-57
2024/01/20 23:33:51;;;;;;;8.70;5.70;;;;;;;-5.89;100.00;99699.41;15276681;19;20062;-58
2024/01/20 23:39:18;;;;;;;7.80;5.80;;;;;;;-5.93;100.00;99688.06;15274264;19;20467;-57
2024/01/20 23:44:43;;;;;;;7.68;4.78;;;;;;;-5.93;100.00;99693.31;15277692;19;20033;-60
2024/01/20 23:50:08;;;;;;;7.10;4.88;;;;;;;-5.94;100.00;99672.34;15291806;19;20042;-59
2024/01/20 23:55:39;;;;;;;7.25;4.78;;;;;;;-5.95;100.00;99670.63;15284957;19;20082;-59
